createdAt,value
2018-03-30T00:00:41.155Z,0.00
2018-03-30T00:01:41.179Z,0.00
2018-03-30T00:02:41.192Z,0.00
2018-03-30T00:03:41.211Z,0.00
2018-03-30T00:04:41.222Z,0.00
2018-03-30T00:05:41.235Z,0.00
2018-03-30T00:06:41.263Z,0.00
2018-03-30T00:07:41.276Z,0.00
2018-03-30T00:08:41.285Z,0.00
2018-03-30T00:09:41.304Z,0.00
2018-03-30T00:10:41.322Z,0.00
2018-03-30T00:11:41.341Z,0.00
2018-03-30T00:12:41.349Z,0.00
2018-03-30T00:13:41.369Z,0.00
2018-03-30T00:14:41.386Z,0.00
2018-03-30T00:15:41.404Z,0.00
2018-03-30T00:16:41.417Z,0.00
2018-03-30T00:17:41.431Z,0.00
2018-03-30T00:18:41.448Z,0.00
2018-03-30T00:19:41.470Z,0.00
2018-03-30T00:20:41.481Z,0.00
2018-03-30T00:21:41.498Z,0.00
2018-03-30T00:22:41.516Z,0.00
2018-03-30T00:23:41.535Z,0.00
2018-03-30T00:24:41.547Z,0.00
2018-03-30T00:25:41.567Z,0.00
2018-03-30T00:26:41.585Z,0.00
2018-03-30T00:27:41.598Z,0.00
2018-03-30T00:28:41.612Z,0.00
2018-03-30T00:29:41.625Z,0.00
2018-03-30T00:30:41.650Z,0.00
2018-03-30T00:31:41.665Z,0.00
2018-03-30T00:32:41.674Z,0.00
2018-03-30T00:33:41.721Z,0.00
2018-03-30T00:34:41.711Z,0.00
2018-03-30T00:35:41.728Z,0.00
2018-03-30T00:36:41.741Z,0.00
2018-03-30T00:37:41.760Z,0.00
2018-03-30T00:38:41.773Z,0.00
2018-03-30T00:39:41.795Z,0.00
2018-03-30T00:40:41.803Z,0.00
2018-03-30T00:41:41.827Z,0.00
2018-03-30T00:42:41.836Z,0.00
2018-03-30T00:43:41.851Z,0.00
2018-03-30T00:44:41.875Z,0.00
2018-03-30T00:45:41.883Z,0.00
2018-03-30T00:46:41.906Z,0.00
2018-03-30T00:47:41.918Z,0.00
2018-03-30T00:48:41.937Z,0.00
2018-03-30T00:49:41.951Z,0.00
2018-03-30T00:50:41.967Z,0.00
2018-03-30T00:51:41.983Z,0.00
2018-03-30T00:52:41.995Z,0.00
2018-03-30T00:53:42.020Z,0.00
2018-03-30T00:54:42.058Z,0.00
2018-03-30T00:55:42.044Z,0.00
2018-03-30T00:56:42.067Z,0.00
2018-03-30T00:57:42.075Z,0.00
2018-03-30T00:58:42.098Z,0.00
2018-03-30T00:59:42.113Z,0.00
2018-03-30T01:00:42.127Z,0.00
2018-03-30T01:01:42.147Z,0.00
2018-03-30T01:02:42.169Z,0.00
2018-03-30T01:03:42.179Z,0.00
2018-03-30T01:04:42.188Z,0.00
2018-03-30T01:05:42.207Z,0.00
2018-03-30T01:06:42.223Z,0.00
2018-03-30T01:07:42.241Z,0.00
2018-03-30T01:08:42.259Z,0.00
2018-03-30T01:09:42.273Z,0.00
2018-03-30T01:10:42.293Z,0.00
2018-03-30T01:11:42.308Z,0.00
2018-03-30T01:12:42.316Z,0.00
2018-03-30T01:13:42.333Z,0.00
2018-03-30T01:14:42.353Z,0.00
2018-03-30T01:15:42.366Z,0.00
2018-03-30T01:16:42.386Z,0.00
2018-03-30T01:17:42.398Z,0.00
2018-03-30T01:18:42.416Z,0.00
2018-03-30T01:19:42.427Z,0.00
2018-03-30T01:20:42.453Z,0.00
2018-03-30T01:21:42.459Z,0.00
2018-03-30T01:22:42.483Z,0.00
2018-03-30T01:23:42.503Z,0.00
2018-03-30T01:24:42.509Z,0.00
2018-03-30T01:25:42.532Z,0.00
2018-03-30T01:26:42.542Z,0.00
2018-03-30T01:27:42.561Z,0.00
2018-03-30T01:28:42.583Z,0.00
2018-03-30T01:29:42.592Z,0.00
2018-03-30T01:30:42.604Z,0.00
2018-03-30T01:31:42.625Z,0.00
2018-03-30T01:32:42.637Z,0.00
2018-03-30T01:33:42.653Z,0.00
2018-03-30T01:34:42.674Z,0.00
2018-03-30T01:35:42.684Z,0.00
2018-03-30T01:36:42.703Z,0.00
2018-03-30T01:37:42.722Z,0.00
2018-03-30T01:38:42.729Z,0.00
2018-03-30T01:39:42.752Z,0.00
2018-03-30T01:40:42.763Z,0.00
2018-03-30T01:41:42.782Z,0.00
2018-03-30T01:42:42.800Z,0.00
2018-03-30T01:43:42.818Z,0.00
2018-03-30T01:44:42.833Z,0.00
2018-03-30T01:45:42.850Z,0.00
2018-03-30T01:46:42.858Z,0.00
2018-03-30T01:47:42.882Z,0.00
2018-03-30T01:48:42.889Z,0.00
2018-03-30T01:49:42.914Z,0.00
2018-03-30T01:50:42.927Z,0.00
2018-03-30T01:51:42.937Z,0.00
2018-03-30T01:52:42.961Z,0.00
2018-03-30T01:53:42.975Z,0.00
2018-03-30T01:54:42.987Z,0.00
2018-03-30T01:55:43.004Z,0.00
2018-03-30T01:56:43.017Z,0.00
2018-03-30T01:57:43.036Z,0.00
2018-03-30T01:58:43.052Z,0.00
2018-03-30T01:59:43.075Z,0.00
2018-03-30T02:00:43.090Z,0.00
2018-03-30T02:01:43.103Z,0.00
2018-03-30T02:02:43.114Z,0.00
2018-03-30T02:03:43.133Z,0.00
2018-03-30T02:04:43.148Z,0.00
2018-03-30T02:05:43.165Z,0.00
2018-03-30T02:06:43.184Z,0.00
2018-03-30T02:07:43.200Z,0.00
2018-03-30T02:08:43.208Z,0.00
2018-03-30T02:09:43.229Z,0.00
2018-03-30T02:10:43.244Z,0.00
2018-03-30T02:11:43.262Z,0.00
2018-03-30T02:12:43.279Z,0.00
2018-03-30T02:13:43.288Z,0.00
2018-03-30T02:14:43.307Z,0.00
2018-03-30T02:15:43.323Z,0.00
2018-03-30T02:16:43.336Z,0.00
2018-03-30T02:17:43.361Z,0.00
2018-03-30T02:18:43.368Z,0.00
2018-03-30T02:19:43.386Z,0.00
2018-03-30T02:20:43.408Z,0.00
2018-03-30T02:21:43.418Z,0.00
2018-03-30T02:22:43.436Z,0.00
2018-03-30T02:23:43.447Z,0.00
2018-03-30T02:24:43.471Z,0.00
2018-03-30T02:25:43.479Z,0.00
2018-03-30T02:26:43.502Z,0.00
2018-03-30T02:27:43.518Z,0.00
2018-03-30T02:28:43.527Z,0.00
2018-03-30T02:29:43.551Z,0.00
2018-03-30T02:30:43.563Z,0.00
2018-03-30T02:31:43.580Z,0.00
2018-03-30T02:32:43.599Z,0.00
2018-03-30T02:33:43.613Z,0.00
2018-03-30T02:34:43.626Z,0.00
2018-03-30T02:35:43.644Z,0.00
2018-03-30T02:36:43.657Z,0.00
2018-03-30T02:37:43.671Z,0.00
2018-03-30T02:38:43.694Z,0.00
2018-03-30T02:39:43.704Z,0.00
2018-03-30T02:40:43.725Z,0.00
2018-03-30T02:41:43.745Z,0.00
2018-03-30T02:42:43.750Z,0.00
2018-03-30T02:43:43.768Z,0.00
2018-03-30T02:44:43.792Z,0.00
2018-03-30T02:45:43.800Z,0.00
2018-03-30T02:46:43.825Z,0.00
2018-03-30T02:47:43.835Z,0.00
2018-03-30T02:48:43.847Z,0.00
2018-03-30T02:49:43.866Z,0.00
2018-03-30T02:50:43.883Z,0.00
2018-03-30T02:51:43.906Z,0.00
2018-03-30T02:52:43.918Z,0.00
2018-03-30T02:53:43.936Z,0.00
2018-03-30T02:54:43.949Z,0.00
2018-03-30T02:55:43.960Z,0.00
2018-03-30T02:56:43.986Z,0.00
2018-03-30T02:57:43.998Z,0.00
2018-03-30T02:58:44.008Z,0.00
2018-03-30T02:59:44.033Z,0.00
2018-03-30T03:00:44.045Z,0.00
2018-03-30T03:01:44.064Z,0.00
2018-03-30T03:02:44.078Z,0.00
2018-03-30T03:03:44.095Z,0.00
2018-03-30T03:04:44.112Z,0.00
2018-03-30T03:05:44.124Z,0.00
2018-03-30T03:06:44.157Z,0.00
2018-03-30T03:07:44.153Z,0.00
2018-03-30T03:08:44.176Z,0.00
2018-03-30T03:09:44.189Z,0.00
2018-03-30T03:10:44.207Z,0.00
2018-03-30T03:11:44.218Z,0.00
2018-03-30T03:12:44.242Z,0.00
2018-03-30T03:13:44.252Z,0.00
2018-03-30T03:14:44.269Z,0.00
2018-03-30T03:15:44.280Z,0.00
2018-03-30T03:16:44.304Z,0.00
2018-03-30T03:17:44.313Z,0.00
2018-03-30T03:18:44.337Z,0.00
2018-03-30T03:19:44.346Z,0.00
2018-03-30T03:20:44.367Z,0.00
2018-03-30T03:21:44.381Z,0.00
2018-03-30T03:22:44.398Z,0.00
2018-03-30T03:23:44.413Z,0.00
2018-03-30T03:24:44.430Z,0.00
2018-03-30T03:25:44.443Z,0.00
2018-03-30T03:26:44.463Z,0.00
2018-03-30T03:27:44.472Z,0.00
2018-03-30T03:28:44.498Z,0.00
2018-03-30T03:29:44.505Z,0.00
2018-03-30T03:30:44.530Z,0.00
2018-03-30T03:31:44.541Z,0.00
2018-03-30T03:32:44.563Z,0.00
2018-03-30T03:33:44.578Z,0.00
2018-03-30T03:34:44.585Z,0.00
2018-03-30T03:35:44.601Z,0.00
2018-03-30T03:36:44.620Z,0.00
2018-03-30T03:37:44.634Z,0.00
2018-03-30T03:38:44.658Z,0.00
2018-03-30T03:39:44.667Z,0.00
2018-03-30T03:40:44.690Z,0.00
2018-03-30T03:41:44.705Z,0.00
2018-03-30T03:42:44.720Z,0.00
2018-03-30T03:43:44.738Z,0.00
2018-03-30T03:44:44.747Z,0.00
2018-03-30T03:45:44.767Z,0.00
2018-03-30T03:46:44.785Z,0.00
2018-03-30T03:47:44.798Z,0.00
2018-03-30T03:48:44.825Z,0.00
2018-03-30T03:49:44.836Z,0.00
2018-03-30T03:50:44.856Z,0.00
2018-03-30T03:51:44.872Z,0.00
2018-03-30T03:52:44.910Z,0.00
2018-03-30T03:53:44.897Z,0.00
2018-03-30T03:54:44.913Z,0.00
2018-03-30T03:55:44.931Z,0.00
2018-03-30T03:56:44.950Z,0.00
2018-03-30T03:57:44.969Z,0.00
2018-03-30T03:58:44.974Z,0.00
2018-03-30T03:59:44.995Z,0.00
2018-03-30T04:00:45.010Z,0.00
2018-03-30T04:01:45.024Z,0.00
2018-03-30T04:02:45.047Z,0.00
2018-03-30T04:03:45.062Z,0.00
2018-03-30T04:04:45.076Z,0.00
2018-03-30T04:05:45.091Z,0.00
2018-03-30T04:06:45.109Z,0.00
2018-03-30T04:07:45.120Z,0.00
2018-03-30T04:08:45.147Z,0.00
2018-03-30T04:09:45.153Z,0.00
2018-03-30T04:10:45.177Z,0.00
2018-03-30T04:11:45.184Z,0.00
2018-03-30T04:12:45.210Z,0.00
2018-03-30T04:13:45.218Z,0.00
2018-03-30T04:14:45.242Z,0.00
2018-03-30T04:15:45.253Z,0.00
2018-03-30T04:16:45.271Z,0.00
2018-03-30T04:17:45.286Z,0.00
2018-03-30T04:18:45.304Z,0.00
2018-03-30T04:19:45.320Z,0.00
2018-03-30T04:20:45.334Z,0.00
2018-03-30T04:21:45.354Z,0.00
2018-03-30T04:22:45.366Z,0.00
2018-03-30T04:23:45.388Z,0.00
2018-03-30T04:24:45.404Z,0.00
2018-03-30T04:25:45.421Z,0.00
2018-03-30T04:26:45.431Z,0.00
2018-03-30T04:27:45.451Z,0.00
2018-03-30T04:28:45.467Z,0.00
2018-03-30T04:29:45.481Z,0.00
2018-03-30T04:30:45.498Z,0.00
2018-03-30T04:31:45.510Z,0.00
2018-03-30T04:32:45.534Z,0.00
2018-03-30T04:33:45.542Z,0.00
2018-03-30T04:34:45.566Z,0.00
2018-03-30T04:35:45.582Z,0.00
2018-03-30T04:36:45.597Z,0.00
2018-03-30T04:37:45.612Z,0.00
2018-03-30T04:38:45.630Z,0.00
2018-03-30T04:39:45.642Z,0.00
2018-03-30T04:40:45.663Z,0.00
2018-03-30T04:41:45.679Z,0.00
2018-03-30T04:42:45.693Z,0.00
2018-03-30T04:43:45.707Z,4.00
2018-03-30T04:44:45.731Z,4.00
2018-03-30T04:45:45.744Z,0.00
2018-03-30T04:46:45.757Z,4.00
2018-03-30T04:47:45.777Z,4.00
2018-03-30T04:48:45.787Z,4.00
2018-03-30T04:49:45.806Z,4.00
2018-03-30T04:50:45.823Z,8.00
2018-03-30T04:51:45.849Z,8.00
2018-03-30T04:52:45.859Z,8.00
2018-03-30T04:53:45.870Z,12.00
2018-03-30T04:54:45.892Z,12.00
2018-03-30T04:55:45.910Z,12.00
2018-03-30T04:56:45.923Z,12.00
2018-03-30T04:57:45.941Z,16.00
2018-03-30T04:58:45.950Z,20.00
2018-03-30T04:59:45.969Z,20.00
2018-03-30T05:00:45.987Z,28.00
2018-03-30T05:01:46.006Z,28.00
2018-03-30T05:02:46.014Z,32.00
2018-03-30T05:03:46.035Z,40.00
2018-03-30T05:04:46.049Z,44.00
2018-03-30T05:05:46.064Z,52.00
2018-03-30T05:06:46.088Z,56.00
2018-03-30T05:07:46.107Z,64.00
2018-03-30T05:08:46.114Z,68.00
2018-03-30T05:09:46.138Z,76.00
2018-03-30T05:10:46.152Z,80.00
2018-03-30T05:11:46.169Z,92.00
2018-03-30T05:12:46.182Z,100.00
2018-03-30T05:13:46.201Z,104.00
2018-03-30T05:14:46.209Z,112.00
2018-03-30T05:15:46.281Z,124.00
2018-03-30T05:16:46.244Z,132.00
2018-03-30T05:17:46.261Z,140.00
2018-03-30T05:18:46.280Z,148.00
2018-03-30T05:19:46.290Z,160.00
2018-03-30T05:20:46.315Z,176.00
2018-03-30T05:21:46.328Z,196.00
2018-03-30T05:22:46.342Z,212.00
2018-03-30T05:23:46.364Z,228.00
2018-03-30T05:24:46.372Z,244.00
2018-03-30T05:25:46.396Z,264.00
2018-03-30T05:26:46.408Z,280.00
2018-03-30T05:27:46.426Z,296.00
2018-03-30T05:28:46.444Z,308.00
2018-03-30T05:29:46.459Z,324.00
2018-03-30T05:30:46.470Z,336.00
2018-03-30T05:31:46.490Z,340.00
2018-03-30T05:32:46.504Z,344.00
2018-03-30T05:33:46.523Z,344.00
2018-03-30T05:34:46.536Z,348.00
2018-03-30T05:35:46.552Z,360.00
2018-03-30T05:36:46.572Z,380.00
2018-03-30T05:37:46.585Z,392.00
2018-03-30T05:38:46.604Z,412.00
2018-03-30T05:39:46.623Z,432.00
2018-03-30T05:40:46.639Z,452.00
2018-03-30T05:41:46.653Z,468.00
2018-03-30T05:42:46.672Z,476.00
2018-03-30T05:43:46.688Z,488.00
2018-03-30T05:44:46.702Z,496.00
2018-03-30T05:45:46.717Z,496.00
2018-03-30T05:46:46.735Z,500.00
2018-03-30T05:47:46.747Z,504.00
2018-03-30T05:48:46.767Z,520.00
2018-03-30T05:49:46.783Z,544.00
2018-03-30T05:50:46.800Z,584.00
2018-03-30T05:51:46.814Z,628.00
2018-03-30T05:52:46.835Z,684.00
2018-03-30T05:53:46.843Z,752.00
2018-03-30T05:54:46.868Z,812.00
2018-03-30T05:55:46.879Z,868.00
2018-03-30T05:56:46.899Z,916.00
2018-03-30T05:57:46.918Z,968.00
2018-03-30T05:58:46.932Z,1020.00
2018-03-30T05:59:46.948Z,1060.00
2018-03-30T06:00:46.968Z,1088.00
2018-03-30T06:01:46.978Z,1116.00
2018-03-30T06:02:47.001Z,1140.00
2018-03-30T06:03:47.013Z,1172.00
2018-03-30T06:04:47.029Z,1216.00
2018-03-30T06:05:47.043Z,1272.00
2018-03-30T06:06:47.067Z,1344.00
2018-03-30T06:07:47.084Z,1424.00
2018-03-30T06:08:47.094Z,1516.00
2018-03-30T06:09:47.113Z,1604.00
2018-03-30T06:10:47.132Z,1668.00
2018-03-30T06:11:47.145Z,1768.00
2018-03-30T06:12:47.164Z,1876.00
2018-03-30T06:13:47.181Z,1968.00
2018-03-30T06:14:47.201Z,2008.00
2018-03-30T06:15:47.218Z,2072.00
2018-03-30T06:16:47.227Z,2184.00
2018-03-30T06:17:47.252Z,2316.00
2018-03-30T06:18:47.261Z,2500.00
2018-03-30T06:19:47.280Z,2720.00
2018-03-30T06:20:47.300Z,2972.00
2018-03-30T06:21:47.320Z,3208.00
2018-03-30T06:22:47.328Z,3436.00
2018-03-30T06:23:47.352Z,3604.00
2018-03-30T06:24:47.366Z,3668.00
2018-03-30T06:25:47.380Z,3620.00
2018-03-30T06:26:47.409Z,3484.00
2018-03-30T06:27:47.416Z,3328.00
2018-03-30T06:28:47.431Z,3184.00
2018-03-30T06:29:47.456Z,3072.00
2018-03-30T06:30:47.470Z,3052.00
2018-03-30T06:31:47.486Z,3140.00
2018-03-30T06:32:47.502Z,3332.00
2018-03-30T06:33:47.522Z,3556.00
2018-03-30T06:34:47.535Z,3692.00
2018-03-30T06:35:47.549Z,3860.00
2018-03-30T06:36:47.577Z,4040.00
2018-03-30T06:37:47.591Z,4192.00
2018-03-30T06:38:47.604Z,4376.00
2018-03-30T06:39:47.630Z,4560.00
2018-03-30T06:40:47.642Z,4804.00
2018-03-30T06:41:47.658Z,5072.00
2018-03-30T06:42:47.676Z,5280.00
2018-03-30T06:43:47.687Z,5388.00
2018-03-30T06:44:47.713Z,5296.00
2018-03-30T06:45:47.728Z,5116.00
2018-03-30T06:46:47.748Z,4976.00
2018-03-30T06:47:47.767Z,4924.00
2018-03-30T06:48:47.781Z,4820.00
2018-03-30T06:49:47.795Z,4668.00
2018-03-30T06:50:47.814Z,4560.00
2018-03-30T06:51:47.835Z,4484.00
2018-03-30T06:52:47.845Z,4444.00
2018-03-30T06:53:47.870Z,5432.00
2018-03-30T06:54:47.879Z,5632.00
2018-03-30T06:55:47.902Z,4144.00
2018-03-30T06:56:47.917Z,4584.00
2018-03-30T06:57:47.980Z,3996.00
2018-03-30T06:58:47.952Z,3232.00
2018-03-30T06:59:47.969Z,3004.00
2018-03-30T07:00:47.990Z,3076.00
2018-03-30T07:01:48.010Z,3296.00
2018-03-30T07:02:48.024Z,3592.00
2018-03-30T07:03:48.043Z,3920.00
2018-03-30T07:04:48.062Z,4232.00
2018-03-30T07:05:48.071Z,4572.00
2018-03-30T07:06:48.098Z,4872.00
2018-03-30T07:07:48.112Z,5100.00
2018-03-30T07:08:48.128Z,5424.00
2018-03-30T07:09:48.149Z,6420.00
2018-03-30T07:10:48.166Z,6028.00
2018-03-30T07:11:48.186Z,6144.00
2018-03-30T07:12:48.195Z,6456.00
2018-03-30T07:13:48.222Z,6828.00
2018-03-30T07:14:48.229Z,6792.00
2018-03-30T07:15:48.248Z,6768.00
2018-03-30T07:16:48.274Z,7488.00
2018-03-30T07:17:48.289Z,7452.00
2018-03-30T07:18:48.304Z,7732.00
2018-03-30T07:19:48.324Z,7456.00
2018-03-30T07:20:48.336Z,7292.00
2018-03-30T07:21:48.357Z,7364.00
2018-03-30T07:22:48.376Z,7276.00
2018-03-30T07:23:48.476Z,7384.00
2018-03-30T07:24:48.406Z,7456.00
2018-03-30T07:25:48.428Z,7632.00
2018-03-30T07:26:48.447Z,8348.00
2018-03-30T07:27:48.465Z,8552.00
2018-03-30T07:28:48.480Z,9140.00
2018-03-30T07:29:48.496Z,10884.00
2018-03-30T07:30:48.521Z,11080.00
2018-03-30T07:31:48.534Z,12684.00
2018-03-30T07:32:48.555Z,16256.00
2018-03-30T07:33:48.575Z,11488.00
2018-03-30T07:34:48.586Z,11448.00
2018-03-30T07:35:48.603Z,14728.00
2018-03-30T07:36:48.624Z,20448.00
2018-03-30T07:37:48.695Z,17344.00
2018-03-30T07:38:48.714Z,43552.00
2018-03-30T07:39:48.675Z,36352.00
2018-03-30T07:40:48.701Z,52000.00
2018-03-30T07:41:48.727Z,70048.00
2018-03-30T07:42:48.740Z,67968.00
2018-03-30T07:43:48.751Z,69056.00
2018-03-30T07:44:48.774Z,56960.00
2018-03-30T07:45:48.790Z,45024.00
2018-03-30T07:46:48.816Z,75360.00
2018-03-30T07:47:48.826Z,71328.00
2018-03-30T07:48:48.856Z,57664.00
2018-03-30T07:49:48.877Z,43296.00
2018-03-30T07:50:48.890Z,34272.00
2018-03-30T07:51:48.912Z,38336.00
2018-03-30T07:52:48.934Z,49152.00
2018-03-30T07:53:48.958Z,54240.00
2018-03-30T07:54:48.970Z,55008.00
2018-03-30T07:55:48.999Z,52960.00
2018-03-30T07:56:49.015Z,52064.00
2018-03-30T07:57:49.038Z,48992.00
2018-03-30T07:58:49.069Z,51968.00
2018-03-30T07:59:49.085Z,64192.00
2018-03-30T08:00:49.107Z,69664.00
2018-03-30T08:01:49.124Z,25632.00
2018-03-30T08:02:49.154Z,83040.00
2018-03-30T08:03:49.172Z,85504.00
2018-03-30T08:04:49.204Z,86816.00
2018-03-30T08:05:49.217Z,87712.00
2018-03-30T08:06:49.243Z,84288.00
2018-03-30T08:07:49.260Z,84416.00
2018-03-30T08:08:49.292Z,33632.00
2018-03-30T08:09:49.308Z,35072.00
2018-03-30T08:10:49.340Z,13488.00
2018-03-30T08:11:49.362Z,12292.00
2018-03-30T08:12:49.383Z,11864.00
2018-03-30T08:13:49.410Z,11516.00
2018-03-30T08:14:49.437Z,11332.00
2018-03-30T08:15:49.459Z,11632.00
2018-03-30T08:16:49.475Z,10964.00
2018-03-30T08:17:49.503Z,10908.00
2018-03-30T08:18:49.545Z,11220.00
2018-03-30T08:19:49.581Z,11632.00
2018-03-30T08:20:49.578Z,12068.00
2018-03-30T08:21:49.601Z,12860.00
2018-03-30T08:22:49.618Z,28640.00
2018-03-30T08:23:49.643Z,12644.00
2018-03-30T08:24:49.667Z,15156.00
2018-03-30T08:25:49.687Z,10384.00
2018-03-30T08:26:49.713Z,10100.00
2018-03-30T08:27:49.732Z,9880.00
2018-03-30T08:28:49.757Z,9876.00
2018-03-30T08:29:49.781Z,9680.00
2018-03-30T08:30:49.796Z,9520.00
2018-03-30T08:31:49.817Z,9384.00
2018-03-30T08:32:49.848Z,9384.00
2018-03-30T08:33:49.867Z,9416.00
2018-03-30T08:34:49.885Z,9460.00
2018-03-30T08:35:49.908Z,9576.00
2018-03-30T08:36:49.933Z,9628.00
2018-03-30T08:37:49.956Z,9644.00
2018-03-30T08:38:49.968Z,9736.00
2018-03-30T08:39:49.990Z,9860.00
2018-03-30T08:40:50.019Z,10024.00
2018-03-30T08:41:50.063Z,10452.00
2018-03-30T08:42:50.057Z,11000.00
2018-03-30T08:43:50.074Z,11660.00
2018-03-30T08:44:50.102Z,16016.00
2018-03-30T08:45:50.121Z,13908.00
2018-03-30T08:46:50.138Z,14200.00
2018-03-30T08:47:50.158Z,15016.00
2018-03-30T08:48:50.182Z,16788.00
2018-03-30T08:49:50.208Z,19616.00
2018-03-30T08:50:50.218Z,18144.00
2018-03-30T08:51:50.238Z,19776.00
2018-03-30T08:52:50.268Z,22016.00
2018-03-30T08:53:50.285Z,20320.00
2018-03-30T08:54:50.303Z,20352.00
2018-03-30T08:55:50.326Z,26752.00
2018-03-30T08:56:50.348Z,17920.00
2018-03-30T08:57:50.371Z,16460.00
2018-03-30T08:58:50.381Z,16004.00
2018-03-30T08:59:50.405Z,15776.00
2018-03-30T09:00:50.429Z,15700.00
2018-03-30T09:01:50.452Z,16072.00
2018-03-30T09:02:50.464Z,20000.00
2018-03-30T09:03:50.486Z,17184.00
2018-03-30T09:04:50.516Z,17888.00
2018-03-30T09:05:50.534Z,15376.00
2018-03-30T09:06:50.550Z,14728.00
2018-03-30T09:07:50.624Z,14336.00
2018-03-30T09:08:50.595Z,14096.00
2018-03-30T09:09:50.614Z,14444.00
2018-03-30T09:10:50.635Z,14820.00
2018-03-30T09:11:50.650Z,17280.00
2018-03-30T09:12:50.680Z,24128.00
2018-03-30T09:13:50.691Z,22016.00
2018-03-30T09:14:50.721Z,17248.00
2018-03-30T09:15:50.734Z,21952.00
2018-03-30T09:16:50.763Z,19360.00
2018-03-30T09:17:50.778Z,22240.00
2018-03-30T09:18:50.804Z,47008.00
2018-03-30T09:19:50.819Z,51712.00
2018-03-30T09:20:50.844Z,32896.00
2018-03-30T09:21:50.918Z,51520.00
2018-03-30T09:22:50.885Z,71040.00
2018-03-30T09:23:50.905Z,104416.00
2018-03-30T09:24:50.927Z,104736.00
2018-03-30T09:25:50.955Z,91264.00
2018-03-30T09:26:50.975Z,51072.00
2018-03-30T09:27:50.991Z,95744.00
2018-03-30T09:28:51.011Z,74592.00
2018-03-30T09:29:51.030Z,29248.00
2018-03-30T09:30:51.062Z,22560.00
2018-03-30T09:31:51.082Z,19264.00
2018-03-30T09:32:51.107Z,18976.00
2018-03-30T09:33:51.128Z,20224.00
2018-03-30T09:34:51.219Z,20704.00
2018-03-30T09:35:51.176Z,22464.00
2018-03-30T09:36:51.194Z,25632.00
2018-03-30T09:37:51.232Z,22368.00
2018-03-30T09:38:51.259Z,22592.00
2018-03-30T09:39:51.268Z,23200.00
2018-03-30T09:40:51.294Z,23904.00
2018-03-30T09:41:51.315Z,24736.00
2018-03-30T09:42:51.341Z,25888.00
2018-03-30T09:43:51.364Z,27168.00
2018-03-30T09:44:51.385Z,28960.00
2018-03-30T09:45:51.407Z,30752.00
2018-03-30T09:46:51.434Z,30656.00
2018-03-30T09:47:51.458Z,33504.00
2018-03-30T09:48:51.484Z,63296.00
2018-03-30T09:49:51.506Z,58048.00
2018-03-30T09:50:51.520Z,63904.00
2018-03-30T09:51:51.549Z,52256.00
2018-03-30T09:52:51.606Z,105280.00
2018-03-30T09:53:51.596Z,75264.00
2018-03-30T09:54:51.615Z,74912.00
2018-03-30T09:55:51.646Z,107200.00
2018-03-30T09:56:51.662Z,72128.00
2018-03-30T09:57:51.694Z,102656.00
2018-03-30T09:58:51.715Z,100128.00
2018-03-30T09:59:51.740Z,38368.00
2018-03-30T10:00:51.768Z,79200.00
2018-03-30T10:01:51.791Z,86656.00
2018-03-30T10:02:51.811Z,97344.00
2018-03-30T10:03:51.834Z,98752.00
2018-03-30T10:04:51.868Z,97664.00
2018-03-30T10:05:51.891Z,92064.00
2018-03-30T10:06:51.913Z,88480.00
2018-03-30T10:07:51.944Z,91136.00
2018-03-30T10:08:51.964Z,96736.00
2018-03-30T10:09:51.992Z,87488.00
2018-03-30T10:10:52.022Z,96384.00
2018-03-30T10:11:52.048Z,97504.00
2018-03-30T10:12:52.072Z,99104.00
2018-03-30T10:13:52.101Z,98688.00
2018-03-30T10:14:52.154Z,94816.00
2018-03-30T10:15:52.158Z,90688.00
2018-03-30T10:16:52.183Z,89536.00
2018-03-30T10:17:52.214Z,92384.00
2018-03-30T10:18:52.232Z,90112.00
2018-03-30T10:19:52.264Z,91104.00
2018-03-30T10:20:52.294Z,93632.00
2018-03-30T10:21:52.324Z,92960.00
2018-03-30T10:22:52.347Z,89792.00
2018-03-30T10:23:52.381Z,81760.00
2018-03-30T10:24:52.404Z,97056.00
2018-03-30T10:25:52.429Z,95776.00
2018-03-30T10:26:52.465Z,96608.00
2018-03-30T10:27:52.492Z,94048.00
2018-03-30T10:28:52.531Z,80160.00
2018-03-30T10:29:52.551Z,99232.00
2018-03-30T10:30:52.577Z,90976.00
2018-03-30T10:31:52.605Z,90784.00
2018-03-30T10:32:52.642Z,93600.00
2018-03-30T10:33:52.658Z,88864.00
2018-03-30T10:34:52.694Z,86752.00
2018-03-30T10:35:52.716Z,77024.00
2018-03-30T10:36:52.754Z,70560.00
2018-03-30T10:37:52.775Z,57376.00
2018-03-30T10:38:52.812Z,79936.00
2018-03-30T10:39:52.835Z,89728.00
2018-03-30T10:40:52.867Z,92416.00
2018-03-30T10:41:52.897Z,91840.00
2018-03-30T10:42:52.924Z,78912.00
2018-03-30T10:43:52.947Z,91744.00
2018-03-30T10:44:52.989Z,91744.00
2018-03-30T10:45:53.012Z,86720.00
2018-03-30T10:46:53.043Z,85952.00
2018-03-30T10:47:53.071Z,87040.00
2018-03-30T10:48:53.098Z,88672.00
2018-03-30T10:49:53.125Z,87840.00
2018-03-30T10:50:53.156Z,85408.00
2018-03-30T10:51:53.188Z,80864.00
2018-03-30T10:52:53.213Z,78848.00
2018-03-30T10:53:53.241Z,86240.00
2018-03-30T10:54:53.272Z,79776.00
2018-03-30T10:55:53.302Z,75616.00
2018-03-30T10:56:53.328Z,73376.00
2018-03-30T10:57:53.354Z,78976.00
2018-03-30T10:58:53.394Z,79904.00
2018-03-30T10:59:53.420Z,82752.00
2018-03-30T11:00:53.441Z,73024.00
2018-03-30T11:01:53.478Z,67136.00
2018-03-30T11:02:53.505Z,73984.00
2018-03-30T11:03:53.534Z,65376.00
2018-03-30T11:04:53.566Z,62368.00
2018-03-30T11:05:53.593Z,56832.00
2018-03-30T11:06:53.616Z,54784.00
2018-03-30T11:07:53.649Z,51744.00
2018-03-30T11:08:53.675Z,46912.00
2018-03-30T11:09:53.700Z,54880.00
2018-03-30T11:10:53.737Z,40352.00
2018-03-30T11:11:53.762Z,47520.00
2018-03-30T11:12:53.791Z,50400.00
2018-03-30T11:13:53.823Z,50144.00
2018-03-30T11:14:53.843Z,45248.00
2018-03-30T11:15:53.874Z,36928.00
2018-03-30T11:16:53.900Z,36128.00
2018-03-30T11:17:53.931Z,39136.00
2018-03-30T11:18:53.960Z,42240.00
2018-03-30T11:19:53.993Z,47552.00
2018-03-30T11:20:54.012Z,53920.00
2018-03-30T11:21:54.042Z,39200.00
2018-03-30T11:22:54.061Z,47584.00
2018-03-30T11:23:54.096Z,56416.00
2018-03-30T11:24:54.115Z,57056.00
2018-03-30T11:25:54.150Z,57760.00
2018-03-30T11:26:54.167Z,60768.00
2018-03-30T11:27:54.194Z,59872.00
2018-03-30T11:28:54.234Z,52032.00
2018-03-30T11:29:54.248Z,52992.00
2018-03-30T11:30:54.284Z,56640.00
2018-03-30T11:31:54.303Z,56064.00
2018-03-30T11:32:54.334Z,58688.00
2018-03-30T11:33:54.364Z,68736.00
2018-03-30T11:34:54.380Z,72128.00
2018-03-30T11:35:54.408Z,71552.00
2018-03-30T11:36:54.446Z,71744.00
2018-03-30T11:37:54.467Z,71040.00
2018-03-30T11:38:54.490Z,81920.00
2018-03-30T11:39:54.515Z,75392.00
2018-03-30T11:40:54.551Z,78496.00
2018-03-30T11:41:54.575Z,71104.00
2018-03-30T11:42:54.598Z,62464.00
2018-03-30T11:43:54.625Z,78688.00
2018-03-30T11:44:54.656Z,83200.00
2018-03-30T11:45:54.686Z,85792.00
2018-03-30T11:46:54.704Z,89664.00
2018-03-30T11:47:54.731Z,87424.00
2018-03-30T11:48:54.767Z,85056.00
2018-03-30T11:49:54.788Z,83808.00
2018-03-30T11:50:54.822Z,57472.00
2018-03-30T11:51:54.846Z,65056.00
2018-03-30T11:52:54.927Z,80352.00
2018-03-30T11:53:54.904Z,80576.00
2018-03-30T11:54:54.932Z,80960.00
2018-03-30T11:55:54.968Z,81504.00
2018-03-30T11:56:54.993Z,86528.00
2018-03-30T11:57:55.017Z,82688.00
2018-03-30T11:58:55.049Z,77984.00
2018-03-30T11:59:55.072Z,75904.00
2018-03-30T12:00:55.111Z,79040.00
2018-03-30T12:01:55.129Z,80288.00
2018-03-30T12:02:55.168Z,78912.00
2018-03-30T12:03:55.190Z,81056.00
2018-03-30T12:04:55.222Z,80672.00
2018-03-30T12:05:55.255Z,80256.00
2018-03-30T12:06:55.273Z,80992.00
2018-03-30T12:07:55.343Z,82752.00
2018-03-30T12:08:55.335Z,80800.00
2018-03-30T12:09:55.360Z,78592.00
2018-03-30T12:10:55.398Z,79392.00
2018-03-30T12:11:55.418Z,80128.00
2018-03-30T12:12:55.455Z,79104.00
2018-03-30T12:13:55.482Z,78144.00
2018-03-30T12:14:55.508Z,78656.00
2018-03-30T12:15:55.536Z,76576.00
2018-03-30T12:16:55.569Z,72928.00
2018-03-30T12:17:55.601Z,73856.00
2018-03-30T12:18:55.641Z,71680.00
2018-03-30T12:19:55.675Z,71616.00
2018-03-30T12:20:55.686Z,69920.00
2018-03-30T12:21:55.712Z,66656.00
2018-03-30T12:22:55.762Z,63968.00
2018-03-30T12:23:55.767Z,63936.00
2018-03-30T12:24:55.797Z,62240.00
2018-03-30T12:25:55.825Z,63776.00
2018-03-30T12:26:55.935Z,64640.00